createdAt,value
2023-09-09T00:00:51.234Z,96.01
2023-09-09T00:03:20.043Z,96.43
2023-09-09T00:05:48.036Z,95.96
2023-09-09T00:08:16.669Z,96.02
2023-09-09T00:10:46.249Z,96.15
2023-09-09T00:13:14.706Z,96.25
2023-09-09T00:15:42.550Z,96.33
2023-09-09T00:18:10.797Z,96.11
2023-09-09T00:20:40.425Z,96.58
2023-09-09T00:23:09.641Z,97.21
2023-09-09T00:25:37.910Z,98.74
2023-09-09T00:28:08.078Z,98.52
2023-09-09T00:30:36.089Z,99.25
2023-09-09T00:33:04.766Z,99.96
2023-09-09T00:35:33.745Z,100.00
2023-09-09T00:38:01.797Z,99.97
2023-09-09T00:40:29.854Z,100.00
2023-09-09T00:42:57.653Z,100.00
2023-09-09T00:45:28.456Z,100.00
2023-09-09T00:47:56.676Z,100.00
2023-09-09T00:50:25.930Z,100.00
2023-09-09T00:52:53.963Z,100.00
2023-09-09T00:55:25.556Z,100.00
2023-09-09T00:57:53.356Z,100.00
2023-09-09T01:00:21.156Z,100.00
2023-09-09T01:02:50.555Z,100.00
2023-09-09T01:05:18.394Z,100.00
2023-09-09T01:07:47.832Z,100.00
2023-09-09T01:10:18.081Z,100.00
2023-09-09T01:12:46.358Z,100.00
2023-09-09T01:15:15.286Z,100.00
2023-09-09T01:17:43.568Z,100.00
2023-09-09T01:20:15.773Z,100.00
2023-09-09T01:22:49.660Z,100.00
2023-09-09T01:25:18.699Z,100.00
2023-09-09T01:27:47.094Z,100.00
2023-09-09T01:30:15.465Z,100.00
2023-09-09T01:32:43.522Z,100.00
2023-09-09T01:35:11.586Z,100.00
2023-09-09T01:37:39.630Z,100.00
2023-09-09T01:40:13.883Z,100.00
2023-09-09T01:42:42.485Z,100.00
2023-09-09T01:45:11.850Z,100.00
2023-09-09T01:47:40.822Z,100.00
2023-09-09T01:50:09.792Z,100.00
2023-09-09T01:52:37.998Z,100.00
2023-09-09T01:55:06.478Z,100.00
2023-09-09T01:57:36.634Z,100.00
2023-09-09T02:00:08.778Z,100.00
2023-09-09T02:02:41.063Z,100.00
2023-09-09T02:05:11.182Z,100.00
2023-09-09T02:07:39.370Z,100.00
2023-09-09T02:10:10.168Z,100.00
2023-09-09T02:12:41.285Z,100.00
2023-09-09T02:15:11.704Z,100.00
2023-09-09T02:17:39.695Z,100.00
2023-09-09T02:20:10.885Z,100.00
2023-09-09T02:22:39.127Z,100.00
2023-09-09T02:25:08.913Z,100.00
2023-09-09T02:27:37.020Z,100.00
2023-09-09T02:30:07.266Z,100.00
2023-09-09T02:32:35.813Z,100.00
2023-09-09T02:35:05.379Z,100.00
2023-09-09T02:37:33.636Z,100.00
2023-09-09T02:40:01.393Z,100.00
2023-09-09T02:42:29.183Z,100.00
2023-09-09T02:44:57.105Z,100.00
2023-09-09T02:47:26.336Z,100.00
2023-09-09T02:49:54.669Z,100.00
2023-09-09T02:52:23.051Z,100.00
2023-09-09T02:54:51.513Z,100.00
2023-09-09T02:57:19.700Z,100.00
2023-09-09T02:59:47.425Z,100.00
2023-09-09T03:02:16.163Z,100.00
2023-09-09T03:04:45.250Z,100.00
2023-09-09T03:07:12.999Z,100.00
2023-09-09T03:09:41.091Z,100.00
2023-09-09T03:12:09.434Z,100.00
2023-09-09T03:14:37.396Z,100.00
2023-09-09T03:17:05.813Z,100.00
2023-09-09T03:19:35.316Z,100.00
2023-09-09T03:22:04.634Z,100.00
2023-09-09T03:24:32.473Z,100.00
2023-09-09T03:27:00.272Z,100.00
2023-09-09T03:29:28.118Z,100.00
2023-09-09T03:31:56.094Z,100.00
2023-09-09T03:34:24.133Z,100.00
2023-09-09T03:36:52.552Z,100.00
2023-09-09T03:39:21.996Z,100.00
2023-09-09T03:41:49.860Z,100.00
2023-09-09T03:44:17.600Z,100.00
2023-09-09T03:46:46.453Z,100.00
2023-09-09T03:49:14.348Z,100.00
2023-09-09T03:51:42.841Z,100.00
2023-09-09T03:54:11.859Z,100.00
2023-09-09T03:56:41.479Z,100.00
2023-09-09T03:59:09.553Z,100.00
2023-09-09T04:01:38.143Z,100.00
2023-09-09T04:04:06.468Z,100.00
2023-09-09T04:06:35.162Z,100.00
2023-09-09T04:09:03.310Z,100.00
2023-09-09T04:11:31.752Z,100.00
2023-09-09T04:14:01.611Z,100.00
2023-09-09T04:16:29.832Z,100.00
2023-09-09T04:18:57.801Z,100.00
2023-09-09T04:21:25.761Z,100.00
2023-09-09T04:23:53.753Z,100.00
2023-09-09T04:26:21.463Z,100.00
2023-09-09T04:28:49.451Z,100.00
2023-09-09T04:31:18.929Z,100.00
2023-09-09T04:33:46.936Z,100.00
2023-09-09T04:36:15.264Z,100.00
2023-09-09T04:38:43.399Z,100.00
2023-09-09T04:41:11.884Z,100.00
2023-09-09T04:43:40.046Z,100.00
2023-09-09T04:46:08.670Z,100.00
2023-09-09T04:48:38.350Z,100.00
2023-09-09T04:51:06.340Z,100.00
2023-09-09T04:53:34.073Z,100.00
2023-09-09T04:56:03.524Z,100.00
2023-09-09T04:58:34.297Z,100.00
2023-09-09T05:01:02.427Z,100.00
2023-09-09T05:03:32.830Z,100.00
2023-09-09T05:06:02.244Z,100.00
2023-09-09T05:08:30.087Z,100.00
2023-09-09T05:10:58.126Z,100.00
2023-09-09T05:13:26.171Z,100.00
2023-09-09T05:15:56.110Z,100.00
2023-09-09T05:18:24.336Z,100.00
2023-09-09T05:20:53.408Z,100.00
2023-09-09T05:23:22.541Z,100.00
2023-09-09T05:25:51.292Z,100.00
2023-09-09T05:28:20.093Z,100.00
2023-09-09T05:30:48.972Z,100.00
2023-09-09T05:33:16.912Z,100.00
2023-09-09T05:35:44.867Z,100.00
2023-09-09T05:38:12.756Z,100.00
2023-09-09T05:40:42.312Z,100.00
2023-09-09T05:43:10.326Z,100.00
2023-09-09T05:45:38.203Z,100.00
2023-09-09T05:48:07.181Z,100.00
2023-09-09T05:50:35.018Z,100.00
2023-09-09T05:53:03.444Z,100.00
2023-09-09T05:55:32.086Z,100.00
2023-09-09T05:58:01.645Z,100.00
2023-09-09T06:00:29.866Z,100.00
2023-09-09T06:02:57.780Z,100.00
2023-09-09T06:05:25.768Z,100.00
2023-09-09T06:07:53.601Z,100.00
2023-09-09T06:10:21.943Z,100.00
2023-09-09T06:12:49.849Z,100.00
2023-09-09T06:15:19.366Z,100.00
2023-09-09T06:17:47.334Z,100.00
2023-09-09T06:20:15.797Z,100.00
2023-09-09T06:22:44.252Z,100.00
2023-09-09T06:25:12.452Z,100.00
2023-09-09T06:27:40.763Z,100.00
2023-09-09T06:30:09.502Z,100.00
2023-09-09T06:32:39.725Z,100.00
2023-09-09T06:35:08.379Z,100.00
2023-09-09T06:37:36.489Z,100.00
2023-09-09T06:40:04.640Z,100.00
2023-09-09T06:42:33.103Z,100.00
2023-09-09T06:45:04.242Z,100.00
2023-09-09T06:47:32.992Z,100.00
2023-09-09T06:50:04.207Z,100.00
2023-09-09T06:52:32.446Z,100.00
2023-09-09T06:55:01.343Z,100.00
2023-09-09T06:57:30.056Z,100.00
2023-09-09T06:59:58.241Z,100.00
2023-09-09T07:02:26.933Z,100.00
2023-09-09T07:04:55.386Z,100.00
2023-09-09T07:07:27.272Z,100.00
2023-09-09T07:09:58.355Z,100.00
2023-09-09T07:12:28.275Z,100.00
2023-09-09T07:14:56.253Z,100.00
2023-09-09T07:17:24.191Z,100.00
2023-09-09T07:19:51.937Z,100.00
2023-09-09T07:22:19.688Z,100.00
2023-09-09T07:24:48.912Z,100.00
2023-09-09T07:27:17.404Z,100.00
2023-09-09T07:29:45.424Z,100.00
2023-09-09T07:32:13.252Z,100.00
2023-09-09T07:34:41.427Z,100.00
2023-09-09T07:37:09.674Z,100.00
2023-09-09T07:39:47.145Z,100.00
2023-09-09T07:42:16.306Z,100.00
2023-09-09T07:44:45.305Z,100.00
2023-09-09T07:47:13.517Z,100.00
2023-09-09T07:49:43.729Z,100.00
2023-09-09T07:52:12.009Z,100.00
2023-09-09T07:54:39.777Z,100.00
2023-09-09T07:57:11.176Z,100.00
2023-09-09T07:59:41.945Z,100.00
2023-09-09T08:02:10.318Z,100.00
2023-09-09T08:04:38.237Z,100.00
2023-09-09T08:07:06.318Z,100.00
2023-09-09T08:09:34.534Z,100.00
2023-09-09T08:12:02.232Z,98.08
2023-09-09T08:14:30.077Z,98.65
2023-09-09T08:16:59.334Z,100.00
2023-09-09T08:19:27.134Z,98.94
2023-09-09T08:21:54.851Z,97.96
2023-09-09T08:24:22.905Z,96.58
2023-09-09T08:26:50.684Z,98.07
2023-09-09T08:29:18.446Z,99.24
2023-09-09T08:31:48.330Z,97.85
2023-09-09T08:34:17.498Z,96.99
2023-09-09T08:36:45.513Z,99.57
2023-09-09T08:39:13.583Z,98.53
2023-09-09T08:41:56.146Z,97.37
2023-09-09T08:44:35.907Z,97.74
2023-09-09T08:47:04.386Z,95.42
2023-09-09T08:49:37.732Z,96.73
2023-09-09T08:52:12.497Z,97.81
2023-09-09T08:54:40.824Z,97.02
2023-09-09T08:57:08.904Z,92.68
2023-09-09T08:59:40.667Z,90.79
2023-09-09T09:02:12.463Z,91.85
2023-09-09T09:04:43.340Z,88.18
2023-09-09T09:07:12.097Z,89.51
2023-09-09T09:09:40.253Z,86.68
2023-09-09T09:12:09.848Z,86.54
2023-09-09T09:14:47.004Z,86.54
2023-09-09T09:17:17.841Z,85.57
2023-09-09T09:19:47.092Z,82.86
2023-09-09T09:22:15.996Z,82.91
2023-09-09T09:24:44.827Z,81.19
2023-09-09T09:27:13.026Z,84.15
2023-09-09T09:29:41.824Z,84.54
2023-09-09T09:32:12.084Z,85.21
2023-09-09T09:34:40.503Z,83.50
2023-09-09T09:37:14.825Z,78.06
2023-09-09T09:39:44.458Z,79.88
2023-09-09T09:42:13.622Z,79.85
2023-09-09T09:44:41.497Z,74.13
2023-09-09T09:47:12.142Z,75.41
2023-09-09T09:49:41.654Z,75.79
2023-09-09T09:52:10.670Z,73.99
2023-09-09T09:54:40.818Z,72.88
2023-09-09T09:57:09.295Z,73.23
2023-09-09T09:59:39.539Z,72.92
2023-09-09T10:02:07.644Z,74.67
2023-09-09T10:04:40.313Z,71.53
2023-09-09T10:07:12.548Z,73.85
2023-09-09T10:09:47.012Z,72.84
2023-09-09T10:12:29.838Z,73.93
2023-09-09T10:15:07.990Z,71.94
2023-09-09T10:17:37.337Z,72.00
2023-09-09T10:20:07.935Z,69.97
2023-09-09T10:22:37.652Z,71.67
2023-09-09T10:25:11.552Z,73.51
2023-09-09T10:27:40.345Z,73.72
2023-09-09T10:30:10.566Z,72.59
2023-09-09T10:32:39.398Z,70.31
2023-09-09T10:35:08.864Z,73.95
2023-09-09T10:37:39.025Z,74.86
2023-09-09T10:40:10.597Z,73.18
2023-09-09T10:42:40.617Z,73.89
2023-09-09T10:45:24.223Z,74.87
2023-09-09T10:47:57.272Z,75.05
2023-09-09T10:50:26.151Z,70.32
2023-09-09T10:53:12.182Z,73.08
2023-09-09T10:55:41.318Z,70.95
2023-09-09T10:58:09.675Z,65.66
2023-09-09T11:00:39.907Z,68.86
2023-09-09T11:03:12.195Z,64.75
2023-09-09T11:06:07.117Z,61.15
2023-09-09T11:08:37.372Z,62.43
2023-09-09T11:11:11.435Z,58.68
2023-09-09T11:13:44.440Z,59.06
2023-09-09T11:16:36.162Z,60.88
2023-09-09T11:19:07.229Z,62.23
2023-09-09T11:21:36.729Z,60.84
2023-09-09T11:24:05.190Z,59.70
2023-09-09T11:26:38.107Z,56.65
2023-09-09T11:29:08.315Z,54.37
2023-09-09T11:31:42.661Z,55.32
2023-09-09T11:34:10.909Z,54.57
2023-09-09T11:36:38.841Z,51.25
2023-09-09T11:39:09.002Z,50.67
2023-09-09T11:41:38.087Z,50.66
2023-09-09T11:44:07.951Z,51.74
2023-09-09T11:46:38.732Z,53.78
2023-09-09T11:49:07.110Z,50.81
2023-09-09T11:51:35.991Z,47.60
2023-09-09T11:54:04.929Z,49.24
2023-09-09T11:56:34.864Z,46.06
2023-09-09T11:59:09.484Z,46.89
2023-09-09T12:01:46.108Z,47.77
2023-09-09T12:04:14.994Z,46.00
2023-09-09T12:06:46.750Z,49.05
2023-09-09T12:09:15.755Z,46.86
2023-09-09T12:11:44.877Z,46.02
2023-09-09T12:14:16.117Z,45.89
2023-09-09T12:16:47.386Z,45.55
2023-09-09T12:19:15.361Z,45.41
2023-09-09T12:21:47.984Z,42.21
2023-09-09T12:24:16.528Z,44.13
2023-09-09T12:26:52.467Z,43.35
2023-09-09T12:29:21.763Z,43.97
2023-09-09T12:31:57.842Z,43.29
2023-09-09T12:34:27.001Z,42.98
2023-09-09T12:36:59.168Z,42.67
2023-09-09T12:39:28.691Z,40.15
2023-09-09T12:42:04.454Z,40.57
2023-09-09T12:44:35.656Z,41.13
2023-09-09T12:47:07.091Z,36.56
2023-09-09T12:49:36.291Z,38.24
2023-09-09T12:52:04.891Z,41.79
2023-09-09T12:54:32.875Z,39.66
2023-09-09T12:57:01.282Z,39.95
2023-09-09T12:59:29.496Z,39.76
2023-09-09T13:02:00.170Z,41.11
2023-09-09T13:04:28.358Z,41.19
2023-09-09T13:06:57.058Z,40.46
2023-09-09T13:09:25.683Z,39.60
2023-09-09T13:11:54.117Z,42.70
2023-09-09T13:14:26.885Z,41.20
2023-09-09T13:16:56.211Z,41.20
2023-09-09T13:19:29.544Z,41.68
2023-09-09T13:21:59.153Z,42.25
2023-09-09T13:24:27.443Z,42.64
2023-09-09T13:26:55.772Z,39.51
2023-09-09T13:29:23.553Z,41.72
2023-09-09T13:31:52.153Z,39.80
2023-09-09T13:34:21.972Z,42.97
2023-09-09T13:36:55.152Z,40.62
2023-09-09T13:39:23.713Z,43.30
2023-09-09T13:41:51.772Z,42.22
2023-09-09T13:44:19.897Z,42.94
2023-09-09T13:46:48.733Z,44.39
2023-09-09T13:49:17.346Z,43.50
2023-09-09T13:51:46.619Z,42.83
2023-09-09T13:54:16.364Z,43.25
2023-09-09T13:56:48.828Z,43.79
2023-09-09T13:59:22.448Z,42.66
2023-09-09T14:01:51.200Z,44.31
2023-09-09T14:04:20.495Z,44.91
2023-09-09T14:06:48.771Z,44.92
2023-09-09T14:09:18.328Z,44.54
2023-09-09T14:11:48.285Z,44.08
2023-09-09T14:14:18.521Z,45.78
2023-09-09T14:16:48.036Z,45.24
2023-09-09T14:19:16.688Z,45.48
2023-09-09T14:21:48.100Z,44.68
2023-09-09T14:24:18.022Z,45.36
2023-09-09T14:26:46.597Z,44.91
2023-09-09T14:29:14.831Z,46.48
2023-09-09T14:31:43.765Z,45.14
2023-09-09T14:34:12.662Z,44.34
2023-09-09T14:36:41.237Z,45.19
2023-09-09T14:39:09.386Z,47.15
2023-09-09T14:41:38.860Z,45.65
2023-09-09T14:44:07.973Z,44.87
2023-09-09T14:46:35.951Z,46.82
2023-09-09T14:49:05.533Z,44.92
2023-09-09T14:51:35.278Z,45.44
2023-09-09T14:54:04.815Z,46.70
2023-09-09T14:56:33.074Z,47.37
2023-09-09T14:59:03.398Z,46.88
2023-09-09T15:01:31.741Z,47.80
2023-09-09T15:03:59.867Z,48.70
2023-09-09T15:06:28.057Z,49.28
2023-09-09T15:08:56.347Z,48.67
2023-09-09T15:11:24.320Z,49.37
2023-09-09T15:13:52.329Z,51.18
2023-09-09T15:16:23.120Z,51.66
2023-09-09T15:18:51.079Z,52.07
2023-09-09T15:21:19.183Z,51.96
2023-09-09T15:23:47.124Z,51.58
2023-09-09T15:26:14.849Z,51.59
2023-09-09T15:28:42.628Z,52.81
2023-09-09T15:31:10.389Z,52.44
2023-09-09T15:33:39.438Z,55.37
2023-09-09T15:36:07.495Z,52.93
2023-09-09T15:38:37.000Z,52.98
2023-09-09T15:41:06.389Z,55.41
2023-09-09T15:43:34.563Z,56.79
2023-09-09T15:46:03.741Z,56.00
2023-09-09T15:48:31.773Z,55.89
2023-09-09T15:51:03.893Z,57.77
2023-09-09T15:53:31.826Z,58.40
2023-09-09T15:56:00.950Z,58.24
2023-09-09T15:58:28.946Z,59.40
2023-09-09T16:01:00.792Z,60.14
2023-09-09T16:03:28.714Z,59.48
2023-09-09T16:06:04.895Z,58.68
2023-09-09T16:08:34.016Z,61.73
2023-09-09T16:11:02.547Z,61.36
2023-09-09T16:13:30.710Z,61.79
2023-09-09T16:16:00.051Z,62.27
2023-09-09T16:18:27.949Z,64.80
2023-09-09T16:20:56.090Z,66.43
2023-09-09T16:23:25.474Z,65.73
2023-09-09T16:25:54.162Z,65.65
2023-09-09T16:28:22.609Z,67.23
2023-09-09T16:30:50.802Z,66.85
2023-09-09T16:33:18.840Z,68.17
2023-09-09T16:35:47.235Z,69.54
2023-09-09T16:38:15.198Z,67.93
2023-09-09T16:40:45.916Z,70.38
2023-09-09T16:43:14.471Z,70.62
2023-09-09T16:45:42.287Z,70.84
2023-09-09T16:48:12.797Z,72.58
2023-09-09T16:50:40.611Z,72.23
2023-09-09T16:53:10.729Z,73.11
2023-09-09T16:55:38.669Z,74.26
2023-09-09T16:58:08.218Z,74.85
2023-09-09T17:00:35.991Z,75.78
2023-09-09T17:03:04.354Z,76.25
2023-09-09T17:05:32.814Z,77.17
2023-09-09T17:08:01.793Z,77.27
2023-09-09T17:10:29.692Z,76.58
2023-09-09T17:12:57.736Z,77.12
2023-09-09T17:15:27.119Z,78.55
2023-09-09T17:17:55.058Z,78.74
2023-09-09T17:20:22.906Z,79.74
2023-09-09T17:22:50.700Z,80.24
2023-09-09T17:25:18.867Z,80.22
2023-09-09T17:27:47.089Z,80.76
2023-09-09T17:30:15.525Z,81.11
2023-09-09T17:32:44.916Z,81.40
2023-09-09T17:35:12.750Z,81.61
2023-09-09T17:37:40.717Z,82.32
2023-09-09T17:40:10.004Z,82.30
2023-09-09T17:42:37.940Z,82.59
2023-09-09T17:45:06.579Z,82.69
2023-09-09T17:47:34.531Z,82.88
2023-09-09T17:50:04.261Z,82.84
2023-09-09T17:52:32.118Z,82.58
2023-09-09T17:54:59.959Z,82.96
2023-09-09T17:57:27.812Z,82.60
2023-09-09T17:59:56.192Z,83.08
2023-09-09T18:02:24.280Z,83.30
2023-09-09T18:04:52.409Z,83.50
2023-09-09T18:07:21.717Z,84.01
2023-09-09T18:09:49.782Z,84.45
2023-09-09T18:12:18.371Z,84.39
2023-09-09T18:14:46.775Z,84.67
2023-09-09T18:17:15.200Z,85.03
2023-09-09T18:19:43.383Z,84.42
2023-09-09T18:22:11.476Z,84.98
2023-09-09T18:24:41.016Z,84.86
2023-09-09T18:27:08.909Z,83.76
2023-09-09T18:29:36.796Z,84.83
2023-09-09T18:32:06.235Z,84.62
2023-09-09T18:34:34.362Z,84.68
2023-09-09T18:37:04.653Z,84.20
2023-09-09T18:39:34.099Z,84.61
2023-09-09T18:42:03.496Z,85.22
2023-09-09T18:44:31.285Z,85.61
2023-09-09T18:46:59.511Z,85.14
2023-09-09T18:49:28.575Z,85.55
2023-09-09T18:51:56.688Z,85.49
2023-09-09T18:54:24.649Z,85.61
2023-09-09T18:56:54.543Z,85.54
2023-09-09T18:59:24.254Z,84.92
2023-09-09T19:01:53.331Z,86.14
2023-09-09T19:04:22.006Z,86.29
2023-09-09T19:06:50.323Z,85.81
2023-09-09T19:09:19.641Z,85.94
2023-09-09T19:11:53.398Z,85.87
2023-09-09T19:14:21.323Z,85.87
2023-09-09T19:16:50.991Z,85.84
2023-09-09T19:19:19.161Z,86.00
2023-09-09T19:21:46.909Z,85.77
2023-09-09T19:24:14.896Z,86.06
2023-09-09T19:26:42.733Z,86.43
2023-09-09T19:29:10.606Z,85.87
2023-09-09T19:31:38.494Z,85.75
2023-09-09T19:34:08.082Z,86.63
2023-09-09T19:36:37.758Z,85.52
2023-09-09T19:39:05.814Z,85.07
2023-09-09T19:41:33.754Z,85.16
2023-09-09T19:44:02.138Z,85.70
2023-09-09T19:46:31.257Z,85.01
2023-09-09T19:48:59.101Z,86.48
2023-09-09T19:51:28.925Z,86.17
2023-09-09T19:53:59.050Z,85.52
2023-09-09T19:56:27.312Z,84.78
2023-09-09T19:58:55.222Z,85.51
2023-09-09T20:01:23.954Z,85.53
2023-09-09T20:03:52.062Z,85.96
2023-09-09T20:06:20.201Z,86.36
2023-09-09T20:08:49.562Z,86.72
2023-09-09T20:11:17.391Z,87.26
2023-09-09T20:13:45.378Z,87.84
2023-09-09T20:16:13.290Z,88.11
2023-09-09T20:18:41.345Z,88.14
2023-09-09T20:21:09.442Z,88.82
2023-09-09T20:23:37.274Z,89.49
2023-09-09T20:26:06.916Z,89.86
2023-09-09T20:28:35.467Z,90.05
2023-09-09T20:31:04.356Z,89.68
2023-09-09T20:33:32.299Z,89.99
2023-09-09T20:36:01.411Z,90.39
2023-09-09T20:38:29.558Z,90.40
2023-09-09T20:40:57.897Z,90.79
2023-09-09T20:43:27.956Z,90.31
2023-09-09T20:45:56.491Z,92.33
2023-09-09T20:48:24.455Z,92.22
2023-09-09T20:50:52.240Z,92.51
2023-09-09T20:53:20.096Z,93.47
2023-09-09T20:55:48.107Z,93.73
2023-09-09T20:58:17.689Z,94.17
2023-09-09T21:00:46.890Z,94.08
2023-09-09T21:03:14.888Z,94.14
2023-09-09T21:05:42.715Z,94.60
2023-09-09T21:08:10.556Z,94.55
2023-09-09T21:10:38.537Z,94.79
2023-09-09T21:13:06.602Z,94.29
2023-09-09T21:15:34.361Z,94.82
2023-09-09T21:18:03.663Z,95.37
2023-09-09T21:20:31.598Z,94.82
2023-09-09T21:22:59.719Z,95.49
2023-09-09T21:25:29.345Z,95.90
2023-09-09T21:27:58.033Z,95.55
2023-09-09T21:30:28.212Z,96.09
2023-09-09T21:32:56.546Z,96.51
2023-09-09T21:35:25.766Z,97.34
2023-09-09T21:37:53.674Z,96.11
2023-09-09T21:40:22.074Z,95.66
2023-09-09T21:42:49.922Z,96.50
2023-09-09T21:45:17.756Z,96.63
2023-09-09T21:47:45.481Z,97.26
2023-09-09T21:50:14.033Z,97.76
2023-09-09T21:52:43.518Z,97.40
2023-09-09T21:55:11.364Z,97.61
2023-09-09T21:57:39.065Z,97.58
2023-09-09T22:00:19.577Z,97.25
2023-09-09T22:02:48.633Z,97.62
2023-09-09T22:05:16.639Z,94.69
2023-09-09T22:07:46.677Z,95.89
2023-09-09T22:10:15.301Z,97.51
2023-09-09T22:12:43.172Z,99.13
2023-09-09T22:15:11.737Z,100.00
2023-09-09T22:17:40.430Z,100.00
2023-09-09T22:20:10.457Z,100.00
2023-09-09T22:22:38.613Z,99.56
2023-09-09T22:25:09.774Z,99.77
2023-09-09T22:27:37.689Z,100.00
2023-09-09T22:30:08.215Z,100.00
2023-09-09T22:32:36.842Z,100.00
2023-09-09T22:35:06.915Z,100.00
2023-09-09T22:37:37.904Z,100.00
2023-09-09T22:40:10.629Z,100.00
2023-09-09T22:42:39.043Z,100.00
2023-09-09T22:45:07.346Z,100.00
2023-09-09T22:47:35.336Z,100.00
2023-09-09T22:50:04.828Z,100.00
2023-09-09T22:52:33.104Z,100.00
2023-09-09T22:55:01.844Z,100.00
2023-09-09T22:57:32.143Z,100.00
2023-09-09T23:00:00.048Z,100.00
2023-09-09T23:02:29.068Z,100.00
2023-09-09T23:04:57.765Z,100.00
2023-09-09T23:07:28.965Z,100.00
2023-09-09T23:10:02.379Z,100.00
2023-09-09T23:12:33.128Z,100.00
2023-09-09T23:15:01.702Z,100.00
2023-09-09T23:17:30.906Z,100.00
2023-09-09T23:19:58.676Z,100.00
2023-09-09T23:22:26.689Z,100.00
2023-09-09T23:24:55.217Z,100.00
2023-09-09T23:27:23.492Z,100.00
2023-09-09T23:29:53.290Z,100.00
2023-09-09T23:32:21.315Z,100.00
2023-09-09T23:34:49.212Z,100.00
2023-09-09T23:37:17.226Z,100.00
2023-09-09T23:39:47.358Z,100.00
2023-09-09T23:42:15.118Z,100.00
2023-09-09T23:44:43.575Z,100.00
2023-09-09T23:47:12.988Z,100.00
2023-09-09T23:49:41.016Z,100.00
2023-09-09T23:52:09.404Z,100.00
2023-09-09T23:54:37.158Z,100.00
2023-09-09T23:57:06.071Z,100.00
2023-09-09T23:59:34.016Z,100.00
